Time;durP1;ratioP1;P1;durP2;ratioP2;P2;SDS_P1;SDS_P2;PMS_P1;PMS_P2;Temp;Humidity;BMP_temperature;BMP_pressure;BME280_temperature;BME280_humidity;BME280_pressure;Samples;Min_cycle;Max_cycle;Signal;HPM_P1;HPM_P2
2023/01/28 00:02:07;;;;;;;44.53;20.65;;;;;;;3.26;61.75;99834.75;7656597;32;39880;-84
2023/01/28 00:06:23;;;;;;;32.40;17.12;;;;;;;2.94;62.55;99835.66;7663265;32;38484;-83
2023/01/28 00:10:41;;;;;;;37.70;17.52;;;;;;;3.27;61.59;99834.53;7682852;32;37683;-83
2023/01/28 00:14:58;;;;;;;32.13;17.40;;;;;;;3.04;62.36;99839.75;7674277;32;39290;-83
2023/01/28 00:19:14;;;;;;;31.67;16.33;;;;;;;3.16;62.04;99837.97;7659562;32;40764;-85
2023/01/28 00:23:32;;;;;;;31.73;15.45;;;;;;;3.33;61.46;99841.75;7657702;32;38716;-84
2023/01/28 00:27:49;;;;;;;30.50;15.95;;;;;;;3.41;61.13;99837.09;7659882;32;36217;-83
2023/01/28 00:32:09;;;;;;;30.10;16.17;;;;;;;2.97;62.24;99846.00;7646571;32;39690;-83
2023/01/28 00:36:26;;;;;;;29.87;16.12;;;;;;;3.08;62.37;99851.72;7660188;32;40544;-82
2023/01/28 00:40:42;;;;;;;31.12;15.85;;;;;;;3.34;61.60;99851.44;7660186;32;38692;-83
2023/01/28 00:44:58;;;;;;;28.42;14.73;;;;;;;3.28;61.75;99852.34;7659876;32;37298;-82
2023/01/28 00:49:14;;;;;;;32.25;15.80;;;;;;;3.20;62.24;99853.44;7659795;32;39461;-84
2023/01/28 00:53:31;;;;;;;31.15;16.73;;;;;;;3.40;61.96;99857.84;7659589;32;39887;-83
2023/01/28 00:57:47;;;;;;;31.25;15.70;;;;;;;3.47;61.56;99850.50;7664060;32;37946;-82
2023/01/28 01:02:11;;;;;;;31.85;16.10;;;;;;;3.46;61.48;99858.81;7685621;32;38062;-83
2023/01/28 01:06:34;;;;;;;28.83;15.75;;;;;;;3.42;61.78;99871.09;7685808;32;40013;-83
2023/01/28 01:10:50;;;;;;;35.00;16.43;;;;;;;3.53;61.44;99867.66;7685494;32;40791;-84
2023/01/28 01:15:09;;;;;;;33.10;16.70;;;;;;;3.37;61.87;99872.56;7685551;32;37869;-84
2023/01/28 01:19:27;;;;;;;33.03;16.77;;;;;;;3.51;61.39;99867.06;7684271;32;36898;-83
2023/01/28 01:23:44;;;;;;;38.20;17.17;;;;;;;3.32;61.91;99879.69;7685490;32;39853;-82
2023/01/28 01:28:00;;;;;;;38.92;19.00;;;;;;;3.39;61.81;99875.06;7682237;32;40077;-83
2023/01/28 01:32:17;;;;;;;41.22;18.98;;;;;;;3.36;61.93;99870.94;7667947;32;37914;-82
2023/01/28 01:36:33;;;;;;;37.47;18.15;;;;;;;3.29;62.19;99864.78;7680578;32;36917;-83
2023/01/28 01:40:50;;;;;;;41.00;19.80;;;;;;;3.23;62.65;99862.97;7671648;32;40163;-84
2023/01/28 01:45:12;;;;;;;42.25;21.83;;;;;;;3.24;62.56;99866.50;7684375;32;39961;-84
2023/01/28 01:49:29;;;;;;;42.30;21.25;;;;;;;3.55;61.70;99865.56;7661496;32;38450;-82
2023/01/28 01:53:49;;;;;;;44.60;21.70;;;;;;;3.30;62.29;99871.00;7658860;32;37359;-83
2023/01/28 01:58:09;;;;;;;41.05;20.17;;;;;;;3.21;62.78;99878.56;7658877;32;40113;-83
2023/01/28 02:02:25;;;;;;;43.08;21.23;;;;;;;3.41;62.21;99867.56;7645424;32;39983;-82
2023/01/28 02:06:42;;;;;;;47.40;20.88;;;;;;;3.17;63.29;99866.53;7645073;32;37993;-82
2023/01/28 02:11:02;;;;;;;43.28;20.70;;;;;;;3.12;63.26;99869.94;7645278;32;37174;-83
2023/01/28 02:15:23;;;;;;;43.50;21.05;;;;;;;3.21;62.94;99862.38;7672826;32;39499;-85
2023/01/28 02:20:05;;;;;;;38.15;20.33;;;;;;;3.29;62.86;99864.78;7671597;32;40557;-83
2023/01/28 02:24:33;;;;;;;37.47;18.90;;;;;;;3.25;63.03;99868.97;7672874;32;38782;-84
2023/01/28 02:29:11;;;;;;;46.22;20.23;;;;;;;3.27;62.89;99872.25;7684410;32;38268;-85
2023/01/28 02:33:34;;;;;;;38.58;19.98;;;;;;;3.27;62.80;99864.16;7676531;32;38978;-83
2023/01/28 02:37:58;;;;;;;42.08;20.08;;;;;;;3.25;62.87;99873.53;7658161;32;39899;-84
2023/01/28 02:42:22;;;;;;;40.42;19.95;;;;;;;3.21;62.89;99878.56;7645311;32;37873;-83
2023/01/28 02:51:32;;;;;;;44.28;22.55;;;;;;;3.20;62.46;99871.50;7658546;32;37550;-82
2023/01/28 02:55:55;;;;;;;48.05;21.60;;;;;;;3.04;63.11;99869.38;7645774;32;40044;-83
2023/01/28 03:00:55;;;;;;;36.67;19.27;;;;;;;3.29;62.35;99875.56;7658477;32;37976;-82
2023/01/28 03:05:21;;;;;;;41.67;19.98;;;;;;;3.24;62.58;99869.19;7631767;32;36946;-83
2023/01/28 03:09:39;;;;;;;40.12;20.88;;;;;;;3.28;62.74;99873.91;7631663;32;39857;-83
2023/01/28 03:37:20;;;;;;;45.05;21.77;;;;;;;3.36;62.25;99862.84;7646008;32;37971;-83
2023/01/28 03:41:36;;;;;;;44.08;21.58;;;;;;;3.33;62.49;99871.37;7674356;32;38026;-83
2023/01/28 03:45:54;;;;;;;41.80;20.98;;;;;;;3.30;62.40;99860.22;7683348;32;39362;-83
2023/01/28 03:50:10;;;;;;;38.95;21.30;;;;;;;3.39;62.43;99864.28;7683329;32;39963;-83
2023/01/28 03:54:27;;;;;;;46.72;22.65;;;;;;;3.40;62.44;99871.31;7683184;32;38711;-83
2023/01/28 03:58:51;;;;;;;46.40;21.35;;;;;;;3.27;62.69;99874.94;7672163;32;37958;-83
2023/01/28 04:03:18;;;;;;;44.63;23.38;;;;;;;2.87;63.67;99872.59;7666677;32;39412;-83
2023/01/28 04:07:34;;;;;;;48.42;21.27;;;;;;;2.93;63.61;99877.13;7683860;32;40772;-83
2023/01/28 04:11:50;;;;;;;43.45;21.25;;;;;;;3.22;63.21;99879.37;7686099;32;37927;-83
2023/01/28 04:16:07;;;;;;;42.20;21.60;;;;;;;3.16;63.31;99881.09;7686302;32;38172;-83
2023/01/28 04:20:23;;;;;;;42.42;22.08;;;;;;;3.25;63.19;99890.53;7686019;32;39441;-83
2023/01/28 04:24:40;;;;;;;46.10;21.98;;;;;;;3.13;63.46;99892.28;7684718;32;39985;-83
2023/01/28 04:28:56;;;;;;;48.22;21.33;;;;;;;3.44;62.59;99882.47;7685696;32;37910;-85
2023/01/28 04:33:12;;;;;;;46.45;20.52;;;;;;;3.24;63.00;99888.03;7652948;32;37178;-84
2023/01/28 04:37:29;;;;;;;50.53;22.48;;;;;;;3.27;63.04;99891.12;7659739;32;40640;-83
2023/01/28 04:41:45;;;;;;;46.22;22.60;;;;;;;3.19;63.38;99894.09;7659600;32;39601;-83
2023/01/28 04:46:01;;;;;;;43.25;21.55;;;;;;;3.24;63.30;99899.63;7663930;32;38442;-78
2023/01/28 04:50:17;;;;;;;46.78;22.92;;;;;;;3.43;62.70;99897.00;7672365;32;37351;-78
2023/01/28 04:54:33;;;;;;;48.03;22.33;;;;;;;3.30;63.10;99893.38;7681283;32;39873;-77
2023/01/28 04:58:49;;;;;;;41.33;20.55;;;;;;;3.08;63.28;99906.41;7667825;32;40275;-83
2023/01/28 05:03:06;;;;;;;50.28;23.05;;;;;;;2.76;63.50;99919.91;7661308;32;37912;-84
2023/01/28 05:07:22;;;;;;;44.95;21.80;;;;;;;2.02;66.35;99924.03;7672140;32;37287;-83
2023/01/28 05:11:38;;;;;;;47.20;21.35;;;;;;;1.84;66.59;99925.50;7660886;32;40075;-84
2023/01/28 05:15:54;;;;;;;40.25;20.95;;;;;;;1.98;66.56;99928.16;7659333;32;40096;-83
2023/01/28 05:20:12;;;;;;;48.83;21.92;;;;;;;2.59;64.61;99922.28;7659103;32;38888;-83
2023/01/28 05:24:28;;;;;;;46.90;21.62;;;;;;;2.49;64.84;99927.31;7654182;32;37290;-83
2023/01/28 05:28:45;;;;;;;52.33;23.40;;;;;;;2.41;65.35;99927.56;7677894;32;39116;-83
2023/01/28 05:33:01;;;;;;;49.13;21.20;;;;;;;2.16;66.25;99931.00;7678546;32;39606;-84
2023/01/28 05:37:17;;;;;;;46.03;20.40;;;;;;;1.86;66.51;99936.91;7655708;32;37568;-85
2023/01/28 05:41:33;;;;;;;50.05;22.45;;;;;;;1.83;67.22;99937.31;7656080;32;37822;-81
2023/01/28 05:45:50;;;;;;;41.72;21.05;;;;;;;1.62;68.34;99942.91;7642952;32;38632;-86
2023/01/28 05:50:07;;;;;;;49.15;21.40;;;;;;;2.11;66.71;99941.56;7657481;32;40771;-84
2023/01/28 05:54:23;;;;;;;47.55;21.87;;;;;;;2.33;66.01;99941.25;7646136;32;37689;-85
2023/01/28 05:58:39;;;;;;;44.63;22.05;;;;;;;2.03;67.00;99945.28;7673333;32;37121;-85
2023/01/28 06:02:55;;;;;;;46.50;21.92;;;;;;;2.21;66.23;99957.25;7670259;32;39383;-84
2023/01/28 06:07:12;;;;;;;47.72;20.92;;;;;;;2.01;67.18;99963.50;7663912;32;40033;-86
2023/01/28 06:11:28;;;;;;;40.45;20.30;;;;;;;2.68;64.89;99965.13;7678330;32;35707;-85
2023/01/28 06:15:47;;;;;;;54.67;21.87;;;;;;;2.55;64.97;99950.69;7671884;32;38028;-85
2023/01/28 06:20:03;;;;;;;47.28;21.98;;;;;;;2.07;66.66;99964.56;7659324;32;39078;-84
2023/01/28 06:24:20;;;;;;;52.08;21.52;;;;;;;1.84;67.18;99971.19;7665779;32;40879;-84
2023/01/28 06:28:36;;;;;;;54.10;21.70;;;;;;;2.21;66.78;99970.72;7673488;32;38639;-85
2023/01/28 06:32:55;;;;;;;45.85;20.75;;;;;;;2.19;66.74;99967.38;7672838;32;37899;-83
2023/01/28 06:37:15;;;;;;;41.92;19.83;;;;;;;2.25;66.67;99978.13;7683496;32;40120;-83
2023/01/28 06:41:31;;;;;;;42.05;20.15;;;;;;;2.05;67.74;99998.88;7685059;32;39160;-82
2023/01/28 06:45:47;;;;;;;42.72;21.45;;;;;;;1.63;68.81;100003.72;7684584;32;37814;-82
2023/01/28 06:50:03;;;;;;;51.58;21.83;;;;;;;2.01;67.63;100006.53;7684538;32;37746;-83
2023/01/28 06:54:20;;;;;;;45.08;22.65;;;;;;;2.17;67.76;100007.13;7684560;32;39469;-84
2023/01/28 06:58:36;;;;;;;55.60;25.42;;;;;;;2.52;66.62;100009.47;7684330;32;39884;-83
2023/01/28 07:02:56;;;;;;;49.58;24.12;;;;;;;2.69;66.07;100009.81;7684288;32;38094;-84
2023/01/28 07:07:12;;;;;;;52.60;23.48;;;;;;;2.52;66.42;100025.62;7684125;32;37229;-85
2023/01/28 07:11:28;;;;;;;48.10;21.70;;;;;;;2.76;65.67;100024.91;7684210;32;39304;-85
2023/01/28 07:15:44;;;;;;;48.00;24.35;;;;;;;2.65;66.06;100035.53;7684133;32;39885;-83
2023/01/28 07:20:01;;;;;;;49.67;22.75;;;;;;;2.89;65.15;100021.31;7683241;32;38056;-81
2023/01/28 07:24:18;;;;;;;45.92;22.37;;;;;;;2.98;65.02;100022.75;7683597;32;38096;-81
2023/01/28 07:28:35;;;;;;;45.90;22.55;;;;;;;3.25;63.65;100022.56;7683680;32;39067;-80
2023/01/28 07:32:56;;;;;;;47.33;22.50;;;;;;;3.07;64.11;100023.31;7669268;32;40849;-81
2023/01/28 07:37:12;;;;;;;62.50;29.35;;;;;;;2.87;64.68;100026.09;7670014;32;37899;-85
2023/01/28 07:41:28;;;;;;;54.63;25.00;;;;;;;3.15;66.57;100035.69;7683315;32;37221;-81
2023/01/28 07:45:44;;;;;;;44.50;21.27;;;;;;;3.73;66.38;100030.06;7683169;32;39398;-81
2023/01/28 07:50:03;;;;;;;44.60;20.10;;;;;;;3.13;64.85;100033.19;7683343;32;38940;-81
2023/01/28 07:54:19;;;;;;;40.12;20.90;;;;;;;3.51;63.41;100044.97;7682943;32;38767;-81
2023/01/28 07:58:36;;;;;;;48.22;21.30;;;;;;;3.19;64.33;100047.66;7682924;32;37996;-82
2023/01/28 08:03:01;;;;;;;49.90;23.12;;;;;;;3.26;64.03;100053.84;7682896;32;39272;-82
2023/01/28 08:07:17;;;;;;;47.72;21.83;;;;;;;3.23;63.41;100053.47;7682583;32;40584;-81
2023/01/28 08:11:38;;;;;;;40.90;19.58;;;;;;;3.48;62.98;100053.47;7682310;32;37679;-82
2023/01/28 08:15:55;;;;;;;48.20;22.15;;;;;;;3.50;62.89;100056.78;7668890;32;38034;-81
2023/01/28 08:20:12;;;;;;;44.35;23.05;;;;;;;3.17;63.78;100066.75;7682538;32;39412;-81
2023/01/28 08:24:29;;;;;;;41.63;22.45;;;;;;;3.08;64.16;100067.22;7682109;32;40641;-82
2023/01/28 08:28:45;;;;;;;41.45;20.75;;;;;;;3.36;63.33;100064.13;7682072;32;38018;-81
2023/01/28 08:33:02;;;;;;;41.92;19.85;;;;;;;3.13;63.85;100078.19;7682104;32;37150;-81
2023/01/28 08:37:18;;;;;;;39.17;20.05;;;;;;;3.18;63.67;100072.97;7682027;32;40218;-82
2023/01/28 08:41:34;;;;;;;38.78;19.12;;;;;;;3.01;64.44;100078.03;7681974;32;40035;-81
2023/01/28 08:45:51;;;;;;;37.30;18.42;;;;;;;2.63;64.76;100076.94;7683771;32;38086;-80
2023/01/28 08:50:08;;;;;;;42.15;20.02;;;;;;;2.71;65.77;100077.72;7685537;32;37216;-80
2023/01/28 08:54:24;;;;;;;38.10;19.00;;;;;;;2.79;65.39;100080.19;7685505;32;40039;-82
2023/01/28 08:58:43;;;;;;;49.38;21.55;;;;;;;2.96;64.22;100075.97;7685394;32;40219;-81
2023/01/28 09:03:00;;;;;;;40.70;19.60;;;;;;;2.89;64.89;100085.94;7685418;32;38781;-81
2023/01/28 09:07:19;;;;;;;49.08;18.90;;;;;;;2.89;64.61;100080.56;7685424;32;37968;-81
2023/01/28 09:11:35;;;;;;;42.10;18.70;;;;;;;2.45;65.70;100084.87;7685191;32;39015;-81
2023/01/28 09:15:51;;;;;;;38.92;19.95;;;;;;;2.55;65.85;100081.72;7682953;32;40033;-80
2023/01/28 09:20:10;;;;;;;37.15;17.42;;;;;;;2.73;65.24;100087.25;7657913;32;37953;-82
2023/01/28 09:24:28;;;;;;;49.50;21.25;;;;;;;2.91;65.29;100088.44;7658118;32;39019;-81
2023/01/28 09:28:46;;;;;;;43.42;19.10;;;;;;;2.91;64.79;100091.94;7657744;32;40165;-82
2023/01/28 09:33:02;;;;;;;37.60;19.42;;;;;;;2.91;64.66;100089.25;7657675;32;39961;-81
2023/01/28 09:37:19;;;;;;;38.17;18.77;;;;;;;2.76;65.00;100096.78;7657729;32;38572;-81
2023/01/28 09:42:02;;;;;;;43.60;20.48;;;;;;;2.52;65.40;100101.00;7657665;32;36953;-81
2023/01/28 09:46:19;;;;;;;38.83;19.12;;;;;;;2.16;66.80;100108.53;7646281;32;40551;-80
2023/01/28 09:50:45;;;;;;;43.72;21.20;;;;;;;2.05;67.10;100111.84;7645669;32;40029;-82
2023/01/28 09:55:14;;;;;;;39.88;19.27;;;;;;;2.78;65.30;100108.19;7659109;32;37981;-83
2023/01/28 09:59:32;;;;;;;45.92;20.73;;;;;;;2.96;64.35;100108.28;7659162;32;37182;-83
2023/01/28 10:04:02;;;;;;;44.10;20.75;;;;;;;2.62;65.21;100107.59;7645423;32;38383;-83
2023/01/28 10:08:54;;;;;;;46.33;20.95;;;;;;;2.29;66.66;100114.91;7658086;32;40192;-82
2023/01/28 10:14:03;;;;;;;43.30;20.90;;;;;;;2.17;67.38;100110.16;7658392;32;37934;-83
2023/01/28 10:18:32;;;;;;;41.20;21.00;;;;;;;2.62;66.31;100110.28;7602236;32;37399;-81
2023/01/28 10:23:11;;;;;;;43.63;21.08;;;;;;;2.69;65.72;100112.13;7658464;32;39319;-82
2023/01/28 10:27:31;;;;;;;41.63;20.60;;;;;;;2.65;66.87;100108.22;7658056;32;40050;-85
2023/01/28 10:31:59;;;;;;;41.70;19.12;;;;;;;3.35;67.25;100098.34;7658271;32;38576;-82
2023/01/28 10:36:17;;;;;;;40.58;19.50;;;;;;;3.18;64.54;100105.31;7658397;32;36924;-82
2023/01/28 10:40:34;;;;;;;54.00;25.33;;;;;;;3.00;65.14;100104.16;7658180;32;38947;-82
2023/01/28 10:44:50;;;;;;;39.47;21.70;;;;;;;3.10;65.09;100102.84;7658024;32;39894;-82
2023/01/28 10:49:13;;;;;;;42.50;19.42;;;;;;;3.51;63.41;100099.69;7658027;32;37997;-82
2023/01/28 10:53:36;;;;;;;44.25;25.17;;;;;;;3.32;63.91;100100.66;7644416;32;37977;-81
2023/01/28 10:57:53;;;;;;;39.53;18.98;;;;;;;3.73;63.12;100097.47;7658081;32;39295;-82
2023/01/28 11:02:22;;;;;;;42.92;20.30;;;;;;;3.49;63.32;100087.50;7644454;32;40088;-81
2023/01/28 11:06:38;;;;;;;39.03;19.05;;;;;;;3.10;64.21;100092.06;7656755;32;38783;-84
2023/01/28 11:10:55;;;;;;;39.08;20.10;;;;;;;3.42;62.92;100084.03;7644171;32;37300;-83
2023/01/28 11:15:17;;;;;;;44.35;20.37;;;;;;;3.83;62.62;100088.91;7657357;32;39489;-84
2023/01/28 11:19:34;;;;;;;43.53;20.77;;;;;;;4.19;61.11;100089.19;7657682;32;40062;-83
2023/01/28 11:23:58;;;;;;;42.00;20.75;;;;;;;4.17;60.87;100075.09;7657521;32;39204;-82
2023/01/28 11:28:19;;;;;;;;;;;;;;;4.30;60.54;100074.97;7657694;32;37235;-84
2023/01/28 11:32:35;;;;;;;39.50;20.75;;;;;;;3.49;62.54;100084.81;7657453;32;39476;-83
2023/01/28 11:37:12;;;;;;;37.58;18.52;;;;;;;3.64;62.76;100079.94;7657305;32;40600;-83
2023/01/28 11:41:34;;;;;;;38.42;18.00;;;;;;;4.02;61.69;100083.53;7657017;32;38003;-83
2023/01/28 11:46:18;;;;;;;36.47;18.73;;;;;;;4.01;61.82;100077.31;7656793;32;38003;-83
2023/01/28 11:50:46;;;;;;;42.45;20.02;;;;;;;3.64;62.58;100077.22;7632106;32;39857;-84
2023/01/28 11:55:27;;;;;;;39.83;19.85;;;;;;;4.03;61.06;100061.72;7657793;32;38936;-84
2023/01/28 12:00:05;;;;;;;31.52;16.58;;;;;;;4.40;60.01;100061.78;7656678;32;37638;-81
2023/01/28 12:04:40;;;;;;;34.88;17.05;;;;;;;4.65;59.51;100071.69;7677946;32;37318;-82
2023/01/28 12:09:09;;;;;;;36.40;18.02;;;;;;;4.18;60.52;100069.50;7659056;32;39401;-86
2023/01/28 12:13:57;;;;;;;37.10;18.20;;;;;;;4.29;60.27;100065.22;7656017;32;40693;-83
2023/01/28 12:18:35;;;;;;;36.10;17.25;;;;;;;4.26;60.77;100060.25;7656833;32;38085;-83
2023/01/28 12:23:17;;;;;;;28.77;16.52;;;;;;;3.85;61.23;100059.00;7659933;32;37834;-84
2023/01/28 12:27:34;;;;;;;33.20;15.73;;;;;;;4.13;60.06;100059.34;7657521;32;39350;-84
2023/01/28 12:32:17;;;;;;;35.95;16.58;;;;;;;4.08;60.70;100069.16;7659630;32;40069;-83
2023/01/28 12:37:06;;;;;;;33.43;15.60;;;;;;;4.31;59.55;100060.41;7657666;32;38805;-83
2023/01/28 12:41:27;;;;;;;34.10;17.35;;;;;;;4.07;60.70;100062.97;7659288;32;37193;-82
2023/01/28 12:45:47;;;;;;;28.48;14.80;;;;;;;3.88;60.39;100055.84;7646346;32;39045;-83
2023/01/28 12:50:26;;;;;;;36.20;17.37;;;;;;;4.03;60.29;100059.03;7646044;32;40101;-83
2023/01/28 12:55:29;;;;;;;38.35;19.10;;;;;;;4.12;60.55;100060.41;7647336;32;38654;-84
2023/01/28 13:00:01;;;;;;;44.47;22.00;;;;;;;4.13;60.62;100059.34;7658308;32;37777;-83
2023/01/28 13:04:36;;;;;;;33.63;17.85;;;;;;;4.30;60.68;100058.78;7658994;32;40184;-84
2023/01/28 13:09:15;;;;;;;37.08;18.65;;;;;;;4.86;59.22;100064.97;7631809;32;40865;-85
2023/01/28 13:13:33;;;;;;;32.38;16.35;;;;;;;4.65;59.56;100061.69;7626277;32;38741;-82
2023/01/28 13:18:01;;;;;;;30.12;16.83;;;;;;;5.24;58.05;100058.44;7644990;32;37017;-83
2023/01/28 13:22:32;;;;;;;29.60;16.27;;;;;;;5.21;57.67;100065.13;7635096;32;39086;-83
2023/01/28 13:26:56;;;;;;;31.00;16.30;;;;;;;5.21;58.17;100073.25;7658732;32;39998;-84
2023/01/28 13:31:18;;;;;;;32.95;16.52;;;;;;;5.13;57.59;100078.16;7658157;32;38049;-82
2023/01/28 13:35:37;;;;;;;29.10;15.57;;;;;;;5.00;58.90;100074.59;7658716;32;37378;-82
2023/01/28 13:40:12;;;;;;;28.65;15.10;;;;;;;5.30;57.77;100081.03;7658744;32;39350;-83
2023/01/28 13:44:33;;;;;;;31.60;16.98;;;;;;;5.31;57.27;100075.38;7658479;32;39965;-82
2023/01/28 13:48:54;;;;;;;27.60;14.80;;;;;;;5.08;57.82;100089.62;7658595;32;37622;-82
2023/01/28 13:53:28;;;;;;;30.33;15.45;;;;;;;5.05;57.68;100087.38;7645488;32;37308;-82
2023/01/28 13:58:18;;;;;;;28.33;14.57;;;;;;;5.19;57.61;100090.75;7634555;32;39432;-82
2023/01/28 14:02:56;;;;;;;27.58;14.68;;;;;;;5.48;57.03;100102.59;7632691;32;40164;-83
2023/01/28 14:07:39;;;;;;;26.20;13.00;;;;;;;5.54;56.40;100106.28;7632257;32;38004;-83
2023/01/28 14:12:12;;;;;;;28.58;14.90;;;;;;;5.41;56.13;100105.37;7631502;32;38357;-83
2023/01/28 14:16:40;;;;;;;25.48;14.43;;;;;;;4.78;57.67;100108.53;7632324;32;39401;-82
2023/01/28 14:21:00;;;;;;;25.85;14.65;;;;;;;5.17;57.61;100115.28;7619977;32;40836;-82
2023/01/28 14:25:27;;;;;;;28.83;14.80;;;;;;;5.00;57.25;100125.06;7619992;32;37922;-82
2023/01/28 14:29:49;;;;;;;30.98;15.57;;;;;;;4.83;57.92;100130.25;7620128;32;37223;-82
2023/01/28 14:34:19;;;;;;;26.30;14.20;;;;;;;5.24;57.10;100136.84;7631846;32;40247;-82
2023/01/28 14:38:39;;;;;;;29.65;15.82;;;;;;;5.14;57.08;100140.09;7638672;32;39927;-82
2023/01/28 14:42:57;;;;;;;28.85;14.75;;;;;;;4.97;58.10;100139.06;7657627;32;38431;-82
2023/01/28 14:47:34;;;;;;;27.02;13.50;;;;;;;4.50;59.23;100137.69;7668246;32;37118;-76
2023/01/28 14:52:06;;;;;;;29.98;14.43;;;;;;;4.38;59.42;100144.88;7656695;32;39712;-78
2023/01/28 14:56:28;;;;;;;30.48;15.18;;;;;;;4.17;60.17;100145.28;7673061;32;41194;-78
2023/01/28 15:00:53;;;;;;;29.30;14.52;;;;;;;4.40;59.34;100156.28;7664128;32;38208;-83
2023/01/28 15:05:19;;;;;;;25.85;13.80;;;;;;;4.48;59.33;100160.56;7658430;32;38071;-82
2023/01/28 15:09:35;;;;;;;26.02;14.75;;;;;;;4.48;58.82;100166.81;7640043;32;158498;-81
2023/01/28 15:13:55;;;;;;;29.52;15.48;;;;;;;4.47;59.15;100172.41;7658125;32;40750;-82
2023/01/28 15:18:15;;;;;;;29.52;15.15;;;;;;;4.11;59.90;100168.56;7644169;32;37653;-82
2023/01/28 15:22:33;;;;;;;30.20;15.52;;;;;;;4.60;58.80;100176.84;7657657;32;37306;-83
2023/01/28 15:26:49;;;;;;;26.60;14.35;;;;;;;4.68;58.38;100180.09;7644109;32;39258;-83
2023/01/28 15:31:06;;;;;;;24.60;13.90;;;;;;;4.56;58.62;100181.06;7657783;32;40880;-83
2023/01/28 15:35:22;;;;;;;28.38;14.00;;;;;;;4.31;59.75;100188.12;7659359;32;38793;-83
2023/01/28 15:39:38;;;;;;;28.45;14.20;;;;;;;4.66;58.38;100186.78;7667479;32;37220;-84
2023/01/28 15:43:54;;;;;;;30.83;16.08;;;;;;;4.61;58.43;100182.03;7684584;32;39472;-84
2023/01/28 15:48:11;;;;;;;25.90;14.77;;;;;;;4.30;60.06;100191.84;7683446;32;39906;-83
2023/01/28 15:52:35;;;;;;;28.62;15.50;;;;;;;4.36;60.36;100200.94;7683682;32;37738;-83
2023/01/28 15:56:52;;;;;;;31.23;15.75;;;;;;;4.14;60.36;100197.81;7685677;32;36351;-84
2023/01/28 16:01:08;;;;;;;29.63;16.67;;;;;;;4.60;58.75;100206.56;7686190;32;39373;-84
2023/01/28 16:05:26;;;;;;;28.02;16.58;;;;;;;4.49;58.90;100208.94;7678414;32;39988;-83
2023/01/28 16:09:42;;;;;;;30.55;15.95;;;;;;;4.33;59.33;100210.31;7659645;32;38077;-81
2023/01/28 16:13:58;;;;;;;33.10;17.00;;;;;;;3.68;60.75;100218.66;7659477;32;37278;-82
2023/01/28 16:18:34;;;;;;;27.87;15.82;;;;;;;4.24;59.36;100222.44;7646255;32;40141;-82
2023/01/28 16:22:53;;;;;;;31.23;15.63;;;;;;;4.19;59.69;100224.13;7635501;32;40064;-83
2023/01/28 16:27:26;;;;;;;33.22;16.45;;;;;;;4.03;60.03;100231.72;7657318;32;37835;-83
2023/01/28 16:31:42;;;;;;;31.08;16.20;;;;;;;3.72;60.72;100237.91;7659038;32;37989;-82
2023/01/28 16:35:58;;;;;;;32.75;16.77;;;;;;;3.66;61.49;100238.78;7659529;32;40191;-82
2023/01/28 16:40:24;;;;;;;30.98;15.73;;;;;;;4.03;60.29;100250.59;7658885;32;40126;-83
2023/01/28 16:44:40;;;;;;;32.17;16.20;;;;;;;4.03;59.81;100253.28;7658374;32;38822;-83
2023/01/28 16:48:56;;;;;;;32.33;16.65;;;;;;;3.88;60.59;100250.91;7659216;32;37266;-82
2023/01/28 16:53:22;;;;;;;37.90;18.48;;;;;;;4.19;59.91;100256.50;7658757;32;40196;-81
2023/01/28 16:57:44;;;;;;;34.17;18.20;;;;;;;4.07;60.16;100254.53;7658784;32;40651;-82
2023/01/28 17:02:00;;;;;;;31.73;16.95;;;;;;;4.17;59.95;100253.22;7658434;32;39122;-82
2023/01/28 17:06:18;;;;;;;33.67;16.62;;;;;;;3.96;60.70;100260.59;7661271;32;37103;-82
2023/01/28 17:10:35;;;;;;;31.10;16.62;;;;;;;4.04;60.60;100260.34;7645062;32;39026;-82
2023/01/28 17:14:51;;;;;;;28.67;16.50;;;;;;;3.56;61.95;100260.81;7644110;32;39639;-82
2023/01/28 17:19:07;;;;;;;31.02;16.20;;;;;;;3.59;62.29;100265.78;7658563;32;38582;-81
2023/01/28 17:23:24;;;;;;;32.47;16.77;;;;;;;3.29;63.23;100271.69;7650548;32;37216;-80
2023/01/28 17:27:40;;;;;;;34.85;17.37;;;;;;;3.71;61.73;100274.84;7658150;32;39325;-82
2023/01/28 17:31:56;;;;;;;32.20;15.80;;;;;;;3.84;61.55;100283.91;7658233;32;39864;-82
2023/01/28 17:36:13;;;;;;;35.45;17.42;;;;;;;3.55;61.96;100288.81;7664537;32;38787;-83
2023/01/28 17:40:29;;;;;;;30.80;15.38;;;;;;;4.19;60.03;100297.84;7669458;32;37947;-81
2023/01/28 17:44:45;;;;;;;38.83;18.35;;;;;;;4.08;60.47;100303.91;7672625;32;39189;-81
2023/01/28 17:49:02;;;;;;;34.75;16.75;;;;;;;3.33;63.19;100305.28;7657865;32;40020;-81
2023/01/28 17:53:18;;;;;;;52.05;22.87;;;;;;;3.51;62.58;100314.56;7657275;32;38806;-84
2023/01/28 17:57:34;;;;;;;37.15;20.12;;;;;;;3.34;62.79;100301.53;7672906;32;38052;-83
2023/01/28 18:01:53;;;;;;;34.60;17.45;;;;;;;3.55;62.03;100305.84;7684201;32;39407;-84
2023/01/28 18:06:09;;;;;;;37.88;17.45;;;;;;;3.82;61.30;100315.69;7676860;32;40628;-82
2023/01/28 18:10:26;;;;;;;38.92;17.55;;;;;;;3.73;61.48;100318.63;7681598;32;38826;-82
2023/01/28 18:14:44;;;;;;;36.78;19.08;;;;;;;3.74;61.01;100327.53;7671068;32;35785;-81
2023/01/28 18:19:05;;;;;;;35.78;17.83;;;;;;;3.81;61.37;100324.81;7683458;32;39170;-81
2023/01/28 18:23:21;;;;;;;35.90;18.12;;;;;;;3.81;61.04;100324.81;7669829;32;40110;-83
2023/01/28 18:27:37;;;;;;;37.78;19.10;;;;;;;3.30;62.56;100329.94;7676422;32;37646;-82
2023/01/28 18:31:54;;;;;;;42.60;19.87;;;;;;;3.96;60.77;100333.44;7683585;32;37825;-81
2023/01/28 18:36:12;;;;;;;36.05;18.30;;;;;;;3.87;60.77;100323.94;7646635;32;39976;-83
2023/01/28 18:40:30;;;;;;;41.80;19.37;;;;;;;3.74;61.04;100335.59;7657435;32;40724;-84
2023/01/28 18:44:46;;;;;;;39.28;19.00;;;;;;;3.06;62.96;100344.91;7671514;32;38022;-83
2023/01/28 18:49:03;;;;;;;37.60;17.85;;;;;;;3.72;61.06;100343.91;7683725;32;37239;-84
2023/01/28 18:53:20;;;;;;;40.65;19.60;;;;;;;3.49;61.70;100343.59;7663103;32;39901;-83
2023/01/28 18:57:37;;;;;;;38.38;18.52;;;;;;;3.17;62.67;100340.75;7656153;32;40816;-81
2023/01/28 19:01:53;;;;;;;32.05;17.08;;;;;;;3.38;62.02;100337.81;7654230;32;37616;-82
2023/01/28 19:06:11;;;;;;;36.58;18.37;;;;;;;3.10;62.69;100345.31;7656899;32;37030;-83
2023/01/28 19:10:27;;;;;;;55.42;27.35;;;;;;;3.42;61.59;100350.88;7657735;32;39160;-82
2023/01/28 19:14:44;;;;;;;44.58;22.17;;;;;;;3.52;61.11;100351.25;7657712;32;39512;-81
2023/01/28 19:19:01;;;;;;;42.33;19.23;;;;;;;3.30;61.41;100356.06;7657622;32;38007;-82
2023/01/28 19:23:18;;;;;;;34.72;16.73;;;;;;;3.30;61.32;100366.84;7648577;32;38104;-82
2023/01/28 19:27:35;;;;;;;33.20;16.62;;;;;;;3.62;60.06;100359.72;7652823;32;40164;-81
2023/01/28 19:31:51;;;;;;;30.90;15.30;;;;;;;3.39;60.72;100370.97;7655101;32;40298;-82
2023/01/28 19:36:09;;;;;;;39.60;18.50;;;;;;;3.59;60.01;100368.25;7657420;32;37912;-81
2023/01/28 19:40:25;;;;;;;41.00;19.27;;;;;;;3.60;59.76;100374.47;7655064;32;37238;-82
2023/01/28 19:44:41;;;;;;;39.72;18.83;;;;;;;3.87;58.70;100389.50;7654743;32;39137;-81
2023/01/28 19:48:58;;;;;;;37.00;18.37;;;;;;;3.76;59.18;100382.91;7654931;32;40007;-81
2023/01/28 19:53:14;;;;;;;32.97;16.23;;;;;;;3.76;58.83;100388.31;7654750;32;36700;-83
2023/01/28 19:57:31;;;;;;;33.20;17.67;;;;;;;3.65;58.99;100386.25;7661380;32;37159;-82
2023/01/28 20:01:47;;;;;;;40.12;18.83;;;;;;;3.41;59.65;100392.34;7663728;32;39474;-82
2023/01/28 20:06:05;;;;;;;39.47;20.05;;;;;;;3.49;59.65;100400.19;7642050;32;39722;-82
2023/01/28 20:10:21;;;;;;;39.35;19.35;;;;;;;3.41;59.70;100406.63;7675025;32;37399;-81
2023/01/28 20:14:38;;;;;;;40.33;19.30;;;;;;;3.13;60.83;100420.34;7679290;32;38265;-82
2023/01/28 20:18:56;;;;;;;33.88;18.27;;;;;;;3.28;60.64;100412.88;7656340;32;38182;-83
2023/01/28 20:23:12;;;;;;;40.88;19.05;;;;;;;3.06;61.35;100416.81;7646042;32;40018;-82
2023/01/28 20:27:29;;;;;;;41.47;19.42;;;;;;;3.36;60.65;100414.50;7654115;32;37420;-81
2023/01/28 20:31:45;;;;;;;41.40;20.55;;;;;;;3.17;61.11;100421.56;7652909;32;38401;-81